Time;durP1;ratioP1;P1;durP2;ratioP2;P2;SDS_P1;SDS_P2;PMS_P1;PMS_P2;Temp;Humidity;BMP_temperature;BMP_pressure;BME280_temperature;BME280_humidity;BME280_pressure;Samples;Min_cycle;Max_cycle;Signal;HPM_P1;HPM_P2
2021/09/13 00:01:27;;;;;;;25.00;19.10;;;;;;;16.90;63.40;100323.09;1732989;80;21130;-57
2021/09/13 00:03:55;;;;;;;25.60;19.57;;;;;;;16.84;63.46;100320.58;1732428;80;21066;-57
2021/09/13 00:07:32;;;;;;;26.50;18.98;;;;;;;16.82;63.51;100319.89;1782751;78;22775;-56
2021/09/13 00:10:00;;;;;;;21.57;17.12;;;;;;;16.75;63.44;100320.23;1755145;80;21125;-56
2021/09/13 00:12:29;;;;;;;24.72;18.25;;;;;;;16.69;63.55;100319.06;1755704;80;21186;-57
2021/09/13 00:14:58;;;;;;;20.43;17.60;;;;;;;16.65;63.61;100319.55;1754780;80;21085;-56
2021/09/13 00:17:24;;;;;;;23.30;18.25;;;;;;;16.60;63.64;100317.89;1753308;80;21007;-57
2021/09/13 00:19:51;;;;;;;20.88;16.15;;;;;;;16.56;63.76;100318.72;1755476;80;20983;-56
2021/09/13 00:22:20;;;;;;;21.23;16.85;;;;;;;16.60;63.71;100316.05;1753600;80;21035;-57
2021/09/13 00:24:48;;;;;;;23.47;17.55;;;;;;;16.65;63.84;100312.91;1753567;80;20919;-57
2021/09/13 00:27:17;;;;;;;28.55;18.77;;;;;;;16.69;63.94;100306.26;1730666;80;21055;-56
2021/09/13 00:29:47;;;;;;;23.02;19.23;;;;;;;16.72;64.14;100313.91;1752147;80;21935;-56
2021/09/13 00:32:18;;;;;;;26.60;17.62;;;;;;;16.72;64.32;100305.43;1753029;80;21047;-57
2021/09/13 00:34:46;;;;;;;23.05;18.27;;;;;;;16.73;64.57;100307.61;1755122;80;21054;-57
2021/09/13 00:37:17;;;;;;;23.67;19.23;;;;;;;16.70;64.47;100311.92;1751449;80;21046;-57
2021/09/13 00:39:44;;;;;;;24.05;19.92;;;;;;;16.65;64.30;100303.11;1730420;80;21007;-56
2021/09/13 00:42:14;;;;;;;25.62;18.75;;;;;;;16.59;64.30;100306.92;1754963;80;21031;-57
2021/09/13 00:44:42;;;;;;;26.10;18.57;;;;;;;16.55;64.30;100305.59;1755741;80;21054;-56
2021/09/13 00:47:11;;;;;;;27.15;18.30;;;;;;;16.54;64.17;100302.09;1754751;80;21125;-57
2021/09/13 00:49:39;;;;;;;23.95;17.42;;;;;;;16.59;63.93;100299.77;1732246;80;21920;-57
2021/09/13 00:52:07;;;;;;;24.52;19.65;;;;;;;16.62;63.81;100303.94;1751736;80;21000;-56
2021/09/13 00:54:35;;;;;;;27.32;20.10;;;;;;;16.61;63.65;100304.44;1749055;80;21549;-57
2021/09/13 00:57:03;;;;;;;28.30;19.05;;;;;;;16.57;63.50;100306.25;1754252;80;21132;-56
2021/09/13 00:59:31;;;;;;;24.85;20.20;;;;;;;16.48;63.49;100305.42;1746358;80;21117;-57
2021/09/13 01:01:59;;;;;;;26.23;20.48;;;;;;;16.42;63.61;100308.20;1743435;80;21098;-56
2021/09/13 01:04:26;;;;;;;22.20;18.77;;;;;;;16.34;63.70;100302.91;1741275;80;21015;-57
2021/09/13 01:06:53;;;;;;;24.85;19.48;;;;;;;16.30;63.84;100303.70;1722915;81;21097;-57
2021/09/13 01:09:20;;;;;;;26.37;20.35;;;;;;;16.26;63.96;100308.19;1732703;80;21103;-57
2021/09/13 01:11:51;;;;;;;26.10;20.55;;;;;;;16.21;64.05;100305.19;1737124;80;21546;-56
2021/09/13 01:14:21;;;;;;;25.85;20.25;;;;;;;16.16;64.15;100314.95;1737947;80;21057;-57
2021/09/13 01:16:47;;;;;;;23.95;18.55;;;;;;;16.12;64.18;100305.64;1726112;81;21059;-57
2021/09/13 01:19:14;;;;;;;23.52;19.27;;;;;;;16.17;64.25;100299.34;1741706;80;21029;-58
2021/09/13 01:21:46;;;;;;;26.70;19.35;;;;;;;16.22;64.23;100308.16;1740237;80;21054;-57
2021/09/13 01:24:13;;;;;;;25.62;19.55;;;;;;;16.24;64.19;100303.04;1726180;80;21070;-57
2021/09/13 01:26:40;;;;;;;25.15;18.32;;;;;;;16.25;64.13;100311.83;1738545;80;21784;-57
2021/09/13 01:29:10;;;;;;;28.80;19.87;;;;;;;16.23;64.05;100304.53;1726268;80;21536;-57
2021/09/13 01:31:40;;;;;;;25.25;19.37;;;;;;;16.20;63.95;100309.64;1721226;80;21097;-57
2021/09/13 01:34:07;;;;;;;26.07;19.73;;;;;;;16.15;63.86;100306.17;1736550;80;21114;-57
2021/09/13 01:36:35;;;;;;;23.80;18.67;;;;;;;16.07;63.93;100307.47;1736208;80;21028;-57
2021/09/13 01:39:04;;;;;;;24.40;19.57;;;;;;;16.00;64.09;100302.95;1741187;80;21097;-57
2021/09/13 01:41:31;;;;;;;25.92;18.70;;;;;;;15.92;64.22;100305.91;1739596;80;21285;-57
2021/09/13 01:43:59;;;;;;;24.00;18.77;;;;;;;15.87;64.32;100307.36;1739056;80;21124;-57
2021/09/13 01:46:28;;;;;;;25.72;18.77;;;;;;;15.85;64.33;100303.54;1736527;80;21082;-57
2021/09/13 01:48:56;;;;;;;22.07;16.90;;;;;;;15.89;64.15;100306.73;1726045;80;21569;-57
2021/09/13 01:51:22;;;;;;;25.23;19.85;;;;;;;15.89;64.04;100304.91;1733787;80;21801;-57
2021/09/13 01:53:51;;;;;;;25.27;19.10;;;;;;;15.91;63.89;100301.59;1723436;81;21102;-58
2021/09/13 01:56:18;;;;;;;24.92;18.98;;;;;;;15.88;63.89;100307.71;1735994;80;21505;-57
2021/09/13 01:58:45;;;;;;;26.30;18.98;;;;;;;15.83;63.93;100306.03;1746834;80;21181;-57
2021/09/13 02:01:14;;;;;;;27.90;19.80;;;;;;;15.78;64.04;100302.52;1719561;80;21114;-57
2021/09/13 02:03:41;;;;;;;23.42;19.52;;;;;;;15.76;64.01;100311.96;1738149;80;21548;-57
2021/09/13 02:06:09;;;;;;;26.82;20.30;;;;;;;15.69;63.94;100304.28;1742993;80;21134;-57
2021/09/13 02:08:38;;;;;;;28.77;19.52;;;;;;;15.66;63.92;100307.23;1707586;80;21062;-57
2021/09/13 02:11:06;;;;;;;28.07;19.17;;;;;;;15.59;63.89;100302.23;1753372;80;21041;-57
2021/09/13 02:13:33;;;;;;;26.33;19.87;;;;;;;15.52;64.01;100304.69;1752988;80;21046;-57
2021/09/13 02:16:00;;;;;;;23.22;19.05;;;;;;;15.51;63.89;100307.48;1749836;80;21231;-57
2021/09/13 02:18:28;;;;;;;24.02;18.92;;;;;;;15.53;63.86;100304.18;1748887;80;21519;-57
2021/09/13 02:20:57;;;;;;;25.43;19.17;;;;;;;15.53;63.80;100303.70;1753330;80;21153;-57
2021/09/13 02:23:24;;;;;;;30.92;19.07;;;;;;;15.52;63.78;100303.86;1732264;80;21086;-58
2021/09/13 02:25:52;;;;;;;27.77;21.48;;;;;;;15.49;63.87;100302.84;1753411;80;21557;-57
2021/09/13 02:28:19;;;;;;;25.27;19.37;;;;;;;15.46;63.84;100301.83;1753021;80;21221;-57
2021/09/13 02:30:46;;;;;;;28.70;21.52;;;;;;;15.41;63.91;100306.27;1752998;80;21450;-57
2021/09/13 02:33:13;;;;;;;27.07;21.50;;;;;;;15.35;63.97;100304.27;1729463;80;21062;-58
2021/09/13 02:35:40;;;;;;;27.32;20.65;;;;;;;15.29;64.22;100306.20;1750961;80;21154;-57
2021/09/13 02:38:07;;;;;;;24.55;19.60;;;;;;;15.27;64.34;100309.00;1730466;80;21465;-57
2021/09/13 02:40:37;;;;;;;29.67;21.95;;;;;;;15.27;64.40;100310.33;1752462;80;21404;-57
2021/09/13 02:43:07;;;;;;;28.62;20.65;;;;;;;15.27;64.36;100310.33;1754007;80;21542;-57
2021/09/13 02:45:37;;;;;;;29.77;20.15;;;;;;;15.32;64.31;100315.17;1750225;80;21102;-57
2021/09/13 02:48:06;;;;;;;25.68;20.45;;;;;;;15.40;64.20;100309.42;1732884;80;21058;-57
2021/09/13 02:50:33;;;;;;;27.65;21.75;;;;;;;15.48;64.07;100309.13;1753527;80;21087;-57
2021/09/13 02:53:01;;;;;;;33.23;22.52;;;;;;;15.52;63.95;100312.64;1753003;80;21067;-57
2021/09/13 02:55:29;;;;;;;28.17;20.52;;;;;;;15.53;63.90;100309.02;1730845;80;21505;-57
2021/09/13 02:57:55;;;;;;;28.15;21.45;;;;;;;15.50;63.80;100310.64;1753451;80;21110;-57
2021/09/13 03:00:23;;;;;;;26.17;21.42;;;;;;;15.46;63.82;100307.95;1749674;80;21062;-57
2021/09/13 03:02:54;;;;;;;26.95;21.35;;;;;;;15.38;63.96;100311.41;1726827;81;21494;-56
2021/09/13 03:05:20;;;;;;;31.48;23.35;;;;;;;15.32;64.02;100315.99;1726670;81;21333;-54
2021/09/13 03:07:47;;;;;;;25.90;20.80;;;;;;;15.26;64.14;100316.60;1709585;82;21090;-56
2021/09/13 03:10:13;;;;;;;26.75;21.93;;;;;;;15.21;64.22;100316.23;1701573;82;21083;-53
2021/09/13 03:12:40;;;;;;;28.35;21.60;;;;;;;15.17;64.31;100312.24;1702257;82;21023;-55
2021/09/13 03:15:08;;;;;;;27.95;20.70;;;;;;;15.16;64.37;100310.56;1699541;82;21518;-56
2021/09/13 03:17:36;;;;;;;26.48;20.85;;;;;;;15.19;64.40;100315.56;1695738;83;21136;-55
2021/09/13 03:20:04;;;;;;;28.92;22.50;;;;;;;15.23;64.33;100314.25;1696792;83;21114;-56
2021/09/13 03:22:32;;;;;;;26.68;20.75;;;;;;;15.25;64.29;100318.94;1697177;82;21227;-56
2021/09/13 03:24:59;;;;;;;29.82;22.15;;;;;;;15.21;64.22;100314.44;1729557;80;21107;-55
2021/09/13 03:27:25;;;;;;;29.07;20.10;;;;;;;15.19;64.15;100317.72;1729661;80;21414;-59
2021/09/13 03:29:52;;;;;;;25.15;19.37;;;;;;;15.17;64.05;100313.57;1731020;80;21075;-60
2021/09/13 03:32:18;;;;;;;23.90;19.12;;;;;;;15.12;64.04;100318.00;1721487;81;21300;-60
2021/09/13 03:34:45;;;;;;;26.30;20.48;;;;;;;15.05;64.17;100317.78;1713972;81;21137;-59
2021/09/13 03:37:12;;;;;;;25.17;19.55;;;;;;;15.02;64.29;100312.78;1731169;80;21105;-59
2021/09/13 03:39:38;;;;;;;23.83;18.00;;;;;;;14.97;64.34;100311.09;1724620;80;21100;-59
2021/09/13 03:42:06;;;;;;;28.98;18.62;;;;;;;14.95;64.42;100318.36;1746897;80;21063;-56
2021/09/13 03:44:32;;;;;;;24.77;18.32;;;;;;;14.96;64.45;100313.41;1735785;80;21118;-57
2021/09/13 03:47:01;;;;;;;21.15;15.95;;;;;;;15.01;64.47;100313.78;1719123;81;21126;-57
2021/09/13 03:49:31;;;;;;;22.98;18.35;;;;;;;15.08;64.36;100313.16;1719703;80;21078;-56
2021/09/13 03:51:58;;;;;;;24.85;17.60;;;;;;;15.10;64.29;100312.53;1722910;80;21137;-59
2021/09/13 03:54:25;;;;;;;23.32;17.95;;;;;;;15.08;64.29;100317.12;1720244;80;21567;-60
2021/09/13 03:56:52;;;;;;;25.97;18.87;;;;;;;15.04;64.35;100318.75;1731420;80;22582;-59
2021/09/13 03:59:19;;;;;;;23.92;17.70;;;;;;;15.04;64.38;100313.95;1738114;80;21580;-60
2021/09/13 04:01:47;;;;;;;23.67;18.00;;;;;;;15.00;64.34;100312.11;1725919;81;21079;-62
2021/09/13 04:04:15;;;;;;;25.88;17.52;;;;;;;14.99;64.37;100319.70;1738110;80;21103;-64
2021/09/13 04:06:46;;;;;;;25.43;18.12;;;;;;;15.00;64.27;100320.06;1702654;80;21193;-65
2021/09/13 04:11:56;;;;;;;19.60;16.27;;;;;;;15.00;64.34;100317.41;1715109;82;21050;-66
2021/09/13 04:14:39;;;;;;;21.80;15.48;;;;;;;15.07;64.23;100318.95;1746705;80;21089;-68
2021/09/13 04:17:22;;;;;;;20.12;14.95;;;;;;;15.17;64.17;100317.55;1660408;84;21107;-66
2021/09/13 04:20:12;;;;;;;20.02;14.95;;;;;;;15.23;64.20;100316.91;1674967;83;21514;-70
2021/09/13 04:22:40;;;;;;;20.08;16.80;;;;;;;15.28;64.07;100317.30;1688202;83;21608;-61
2021/09/13 04:25:09;;;;;;;22.60;16.25;;;;;;;15.32;63.91;100326.59;1679642;81;21116;-61
2021/09/13 04:27:46;;;;;;;18.98;15.70;;;;;;;15.33;63.90;100318.99;1717902;80;21152;-61
2021/09/13 04:30:32;;;;;;;20.52;15.43;;;;;;;15.35;63.90;100320.98;1667405;84;21129;-67
2021/09/13 04:33:21;;;;;;;22.67;17.30;;;;;;;15.38;63.66;100325.98;1629223;85;21203;-62
2021/09/13 04:35:52;;;;;;;20.40;15.83;;;;;;;15.38;63.52;100329.96;1649240;83;21559;-62
2021/09/13 04:38:21;;;;;;;19.17;14.50;;;;;;;15.38;63.51;100329.96;1694000;83;21079;-60
2021/09/13 04:41:07;;;;;;;22.37;15.18;;;;;;;15.40;63.56;100331.95;1672269;83;21114;-63
2021/09/13 04:43:38;;;;;;;19.37;13.95;;;;;;;15.49;63.57;100328.04;1692424;82;21675;-63
2021/09/13 04:46:09;;;;;;;20.77;15.72;;;;;;;15.59;63.41;100326.93;1694409;83;21086;-63
2021/09/13 04:48:55;;;;;;;21.73;15.78;;;;;;;15.71;63.21;100325.34;1698210;83;21138;-63
2021/09/13 04:51:39;;;;;;;21.97;15.68;;;;;;;15.83;63.10;100324.60;1696886;83;21102;-61
2021/09/13 04:54:10;;;;;;;22.55;15.90;;;;;;;15.90;63.08;100319.84;1672806;83;21093;-61
2021/09/13 04:56:37;;;;;;;21.82;16.00;;;;;;;15.97;62.99;100319.53;1714838;82;21141;-62
2021/09/13 04:59:05;;;;;;;23.40;15.83;;;;;;;16.05;62.92;100320.05;1745433;80;23113;-62
2021/09/13 05:01:31;;;;;;;24.63;16.05;;;;;;;16.12;62.97;100318.44;1742990;80;21695;-62
2021/09/13 05:03:58;;;;;;;19.90;15.30;;;;;;;16.18;62.92;100318.78;1721041;80;21082;-62
2021/09/13 05:06:24;;;;;;;22.70;16.23;;;;;;;16.21;62.89;100309.17;1743978;80;21608;-62
2021/09/13 05:08:54;;;;;;;21.73;15.78;;;;;;;16.28;62.85;100315.49;1739903;80;21035;-62
2021/09/13 05:11:22;;;;;;;19.02;14.63;;;;;;;16.40;62.77;100308.88;1738548;80;22614;-62
2021/09/13 05:13:51;;;;;;;20.57;14.45;;;;;;;16.56;62.58;100309.42;1720378;80;21466;-62
2021/09/13 05:16:19;;;;;;;20.60;14.80;;;;;;;16.68;62.07;100308.09;1736152;80;21071;-62
2021/09/13 05:18:47;;;;;;;20.08;14.28;;;;;;;16.79;61.57;100310.92;1737607;80;21039;-62
2021/09/13 05:21:15;;;;;;;20.80;14.95;;;;;;;16.86;61.34;100305.80;1721495;80;22034;-62
2021/09/13 05:23:42;;;;;;;19.00;14.28;;;;;;;16.94;61.61;100303.66;1737903;80;21129;-62
2021/09/13 05:26:09;;;;;;;18.15;13.80;;;;;;;17.02;61.14;100305.81;1735455;80;21300;-62
2021/09/13 05:28:36;;;;;;;13.85;11.18;;;;;;;17.10;60.68;100302.33;1739620;80;21068;-62
2021/09/13 05:31:03;;;;;;;20.35;12.82;;;;;;;17.16;60.20;100308.28;1741961;80;21051;-61
2021/09/13 05:33:31;;;;;;;16.70;12.53;;;;;;;17.21;59.49;100305.13;1739507;80;21062;-61
2021/09/13 05:35:58;;;;;;;18.07;12.30;;;;;;;17.24;59.05;100305.62;1738320;80;23064;-62
2021/09/13 05:38:26;;;;;;;18.90;11.63;;;;;;;17.28;58.44;100302.13;1738304;80;21042;-62
2021/09/13 05:40:53;;;;;;;18.40;12.47;;;;;;;17.31;58.17;100303.62;1736536;80;21107;-62
2021/09/13 05:43:20;;;;;;;17.73;12.80;;;;;;;17.33;58.20;100308.27;1722110;80;20995;-62
2021/09/13 05:45:48;;;;;;;16.65;12.05;;;;;;;17.38;57.86;100308.59;1722586;80;21108;-63
2021/09/13 05:48:14;;;;;;;16.82;11.97;;;;;;;17.43;57.82;100308.91;1738916;80;22732;-62
2021/09/13 05:50:42;;;;;;;17.73;12.98;;;;;;;17.48;58.07;100306.58;1720648;80;21050;-62
2021/09/13 05:53:09;;;;;;;17.12;11.25;;;;;;;17.54;58.11;100308.56;1739262;80;21067;-62
2021/09/13 05:55:42;;;;;;;14.35;11.48;;;;;;;17.63;58.18;100302.23;1739490;80;21650;-64
2021/09/13 05:58:07;;;;;;;15.88;11.65;;;;;;;17.79;57.74;100300.01;1739602;80;21098;-61
2021/09/13 06:00:34;;;;;;;19.77;11.97;;;;;;;17.96;57.85;100298.65;1738418;80;21138;-64
2021/09/13 06:03:00;;;;;;;16.07;12.20;;;;;;;18.10;57.69;100294.41;1740757;80;21483;-77
2021/09/13 06:05:30;;;;;;;17.37;12.73;;;;;;;18.22;57.31;100298.84;1737229;80;21079;-70
2021/09/13 06:07:58;;;;;;;16.05;11.33;;;;;;;18.30;56.82;100296.97;1743655;80;21097;-67
2021/09/13 06:10:26;;;;;;;17.00;11.30;;;;;;;18.39;56.43;100300.41;1748255;80;21108;-67
2021/09/13 06:12:52;;;;;;;16.80;11.18;;;;;;;18.45;56.71;100300.22;1750248;80;21135;-65
2021/09/13 06:15:19;;;;;;;15.98;11.85;;;;;;;18.51;55.89;100299.52;1727886;80;21109;-64
2021/09/13 06:17:48;;;;;;;13.43;10.58;;;;;;;18.58;55.82;100292.47;1748911;80;21581;-64
2021/09/13 06:20:17;;;;;;;18.45;12.68;;;;;;;18.69;55.88;100297.87;1748034;80;21494;-69
2021/09/13 06:22:48;;;;;;;14.43;11.03;;;;;;;18.77;55.81;100297.00;1750583;80;21735;-68
2021/09/13 06:25:18;;;;;;;14.23;10.88;;;;;;;18.85;55.86;100301.79;1744071;80;21493;-67
2021/09/13 06:27:45;;;;;;;14.35;10.63;;;;;;;18.93;55.42;100300.91;1750651;80;21114;-65
2021/09/13 06:30:14;;;;;;;14.58;10.28;;;;;;;19.00;55.47;100303.17;1751061;80;21042;-65
2021/09/13 06:32:41;;;;;;;19.60;11.43;;;;;;;19.08;55.10;100304.44;1715272;81;21109;-65
2021/09/13 06:35:10;;;;;;;15.55;11.30;;;;;;;19.16;54.98;100300.03;1744426;80;21042;-63
2021/09/13 06:37:38;;;;;;;13.72;10.45;;;;;;;19.25;55.00;100308.30;1750359;80;21164;-64
2021/09/13 06:40:07;;;;;;;13.83;10.25;;;;;;;19.30;54.51;100298.72;1752377;80;21551;-65
2021/09/13 06:42:33;;;;;;;15.32;10.70;;;;;;;19.39;54.38;100296.80;1752074;80;21043;-64
2021/09/13 06:45:09;;;;;;;14.30;10.40;;;;;;;19.47;53.78;100292.70;1719507;81;21076;-64
2021/09/13 06:49:57;;;;;;;16.55;11.30;;;;;;;19.60;53.86;100295.23;1750621;80;21054;-64
2021/09/13 06:52:23;;;;;;;14.63;10.25;;;;;;;19.67;55.12;100299.66;1726656;81;21086;-65
2021/09/13 06:54:50;;;;;;;15.10;10.55;;;;;;;19.77;55.85;100296.75;1752422;80;21129;-66
2021/09/13 06:57:17;;;;;;;16.65;10.65;;;;;;;19.94;55.73;100299.20;1748407;80;21027;-65
2021/09/13 06:59:44;;;;;;;15.32;11.65;;;;;;;20.11;54.91;100302.52;1732887;80;21064;-65
2021/09/13 07:02:10;;;;;;;15.65;10.53;;;;;;;20.23;55.60;100300.48;1747992;80;21104;-65
2021/09/13 07:04:37;;;;;;;16.02;10.68;;;;;;;20.32;55.45;100303.05;1752984;80;21042;-65
2021/09/13 07:07:03;;;;;;;17.27;11.80;;;;;;;20.41;55.35;100309.95;1755110;79;21498;-65
2021/09/13 07:09:29;;;;;;;16.17;12.05;;;;;;;20.49;55.08;100307.12;1736843;81;21055;-66
2021/09/13 07:11:59;;;;;;;14.73;10.08;;;;;;;20.56;55.11;100306.70;1741062;81;21028;-66
2021/09/13 07:14:26;;;;;;;13.48;10.30;;;;;;;20.63;55.01;100304.13;1739012;80;22605;-65
2021/09/13 07:16:52;;;;;;;16.62;11.00;;;;;;;20.70;55.14;100309.55;1743053;80;21103;-66
2021/09/13 07:19:20;;;;;;;15.20;10.78;;;;;;;20.74;54.76;100301.45;1739165;80;21070;-67
2021/09/13 07:21:47;;;;;;;17.52;10.58;;;;;;;20.78;54.59;100309.42;1731169;80;21694;-68
2021/09/13 07:24:20;;;;;;;13.72;10.95;;;;;;;20.84;54.76;100304.62;1736962;80;21114;-68
2021/09/13 07:26:43;;;;;;;15.08;10.28;;;;;;;20.88;55.25;100307.73;1734534;80;21262;-68
2021/09/13 07:29:10;;;;;;;17.48;11.03;;;;;;;20.94;55.33;100306.97;1737056;80;21527;-68
2021/09/13 07:31:36;;;;;;;14.70;10.32;;;;;;;21.03;55.04;100315.68;1736198;80;21154;-66
2021/09/13 07:34:04;;;;;;;14.05;10.43;;;;;;;21.06;54.76;100309.95;1737237;80;21043;-66
2021/09/13 07:36:32;;;;;;;15.50;11.03;;;;;;;21.09;54.63;100314.92;1734356;80;21568;-67
2021/09/13 07:39:01;;;;;;;15.25;10.48;;;;;;;21.15;54.45;100312.30;1735674;80;21071;-64
2021/09/13 07:41:28;;;;;;;16.45;10.28;;;;;;;21.21;54.38;100317.38;1714398;81;21176;-67
2021/09/13 07:43:54;;;;;;;13.78;9.63;;;;;;;21.27;53.27;100312.59;1722122;81;21538;-67
2021/09/13 07:46:22;;;;;;;17.02;10.18;;;;;;;21.33;53.82;100317.17;1736859;80;21063;-65
2021/09/13 07:48:48;;;;;;;12.33;9.03;;;;;;;21.45;54.48;100312.11;1740526;80;21039;-64
2021/09/13 07:51:16;;;;;;;17.02;9.75;;;;;;;21.63;54.27;100322.31;1728692;80;21114;-66
2021/09/13 07:53:42;;;;;;;12.93;9.73;;;;;;;21.82;53.78;100310.08;1700243;82;21114;-65
2021/09/13 07:56:08;;;;;;;15.18;9.95;;;;;;;21.97;53.67;100309.95;1710516;82;21424;-66
2021/09/13 07:58:35;;;;;;;12.00;9.40;;;;;;;22.07;52.97;100310.89;1739758;80;21522;-63
2021/09/13 08:01:01;;;;;;;12.78;9.25;;;;;;;22.14;52.65;100309.58;1736931;80;21114;-65
2021/09/13 08:03:28;;;;;;;16.60;9.85;;;;;;;22.22;51.89;100303.52;1736693;80;21071;-63
2021/09/13 08:05:55;;;;;;;15.40;9.70;;;;;;;22.29;51.57;100302.23;1677712;82;21066;-65
2021/09/13 08:08:22;;;;;;;15.83;9.35;;;;;;;22.38;51.20;100298.36;1687918;83;21490;-64
2021/09/13 08:10:49;;;;;;;13.48;9.20;;;;;;;22.48;50.91;100299.31;1728392;80;21475;-66
2021/09/13 08:13:16;;;;;;;12.88;8.55;;;;;;;22.57;50.37;100296.73;1734228;80;21071;-66
2021/09/13 08:15:43;;;;;;;13.25;8.80;;;;;;;22.63;49.84;100291.09;1744586;81;21098;-65
2021/09/13 08:18:11;;;;;;;13.15;8.35;;;;;;;22.70;48.34;100297.28;1736055;80;21139;-65
2021/09/13 08:20:41;;;;;;;13.20;8.48;;;;;;;22.77;48.22;100294.08;1724288;80;21573;-65
2021/09/13 08:23:09;;;;;;;11.15;8.08;;;;;;;22.88;47.25;100295.83;1735541;80;21186;-64
2021/09/13 08:25:38;;;;;;;12.33;9.18;;;;;;;22.97;47.17;100294.61;1721145;81;21569;-66
2021/09/13 08:28:06;;;;;;;11.00;8.15;;;;;;;23.06;47.38;100291.20;1725395;81;21051;-68
2021/09/13 08:30:34;;;;;;;13.48;9.35;;;;;;;23.14;48.12;100293.17;1738068;80;21008;-68
2021/09/13 08:33:00;;;;;;;18.57;8.88;;;;;;;23.16;48.32;100283.05;1737109;80;21558;-67
2021/09/13 08:35:27;;;;;;;13.05;7.95;;;;;;;23.22;49.09;100287.27;1724881;80;21734;-65
2021/09/13 08:37:55;;;;;;;10.45;7.95;;;;;;;23.28;47.35;100279.74;1736733;80;21101;-65
2021/09/13 08:40:23;;;;;;;15.05;8.68;;;;;;;23.37;46.20;100285.22;1736853;80;21173;-63
2021/09/13 08:42:50;;;;;;;11.45;8.13;;;;;;;23.45;45.64;100283.66;1735334;81;21554;-64
2021/09/13 08:45:37;;;;;;;11.28;8.65;;;;;;;23.54;45.97;100281.03;1697556;82;21104;-67
2021/09/13 08:48:03;;;;;;;11.90;7.47;;;;;;;23.66;46.99;100291.13;1736118;80;21578;-64
2021/09/13 08:51:03;;;;;;;12.28;8.63;;;;;;;23.74;46.09;100278.28;1698460;82;21533;-65
2021/09/13 08:52:53;;;;;;;14.35;7.70;;;;;;;23.83;45.24;100280.77;1728863;80;21134;-65
2021/09/13 08:55:21;;;;;;;11.65;8.75;;;;;;;23.91;43.90;100281.34;1702637;82;21020;-65
2021/09/13 08:57:48;;;;;;;12.78;8.20;;;;;;;23.99;43.37;100277.61;1735872;80;21597;-64
2021/09/13 09:00:15;;;;;;;12.53;7.90;;;;;;;24.09;43.77;100283.84;1679462;82;21078;-63
2021/09/13 09:02:42;;;;;;;11.73;7.20;;;;;;;24.16;43.34;100279.78;1741057;82;21056;-65
2021/09/13 09:05:10;;;;;;;11.10;7.60;;;;;;;24.22;42.84;100278.40;1701900;82;21085;-63
2021/09/13 09:07:53;;;;;;;12.82;7.87;;;;;;;24.28;41.72;100269.48;1702092;82;21101;-63
2021/09/13 09:10:26;;;;;;;9.83;7.83;;;;;;;24.35;40.94;100275.34;1696282;80;21140;-63
2021/09/13 09:13:03;;;;;;;10.40;7.50;;;;;;;24.43;40.23;100267.02;1737955;80;21012;-64
2021/09/13 09:15:30;;;;;;;12.35;7.50;;;;;;;24.51;41.14;100270.80;1702865;82;20996;-65
2021/09/13 09:17:58;;;;;;;10.68;7.08;;;;;;;24.61;41.36;100262.25;1738328;80;22146;-64
2021/09/13 09:20:25;;;;;;;10.40;6.90;;;;;;;24.73;41.67;100266.41;1737566;80;21128;-64
2021/09/13 09:23:04;;;;;;;9.73;7.62;;;;;;;24.82;40.57;100271.83;1701075;82;21176;-64
2021/09/13 09:25:36;;;;;;;13.00;7.87;;;;;;;24.91;39.73;100266.99;1733758;80;21807;-66
2021/09/13 09:28:11;;;;;;;11.60;7.45;;;;;;;24.97;39.37;100261.55;1739327;80;21095;-63
2021/09/13 09:30:41;;;;;;;10.38;8.00;;;;;;;25.01;39.09;100264.09;1700971;82;21148;-65
2021/09/13 09:33:14;;;;;;;10.48;7.87;;;;;;;25.05;39.13;100261.80;1737178;80;21078;-64
2021/09/13 09:35:48;;;;;;;11.35;7.80;;;;;;;25.09;39.16;100258.14;1699278;82;21494;-64
2021/09/13 09:38:36;;;;;;;10.63;7.30;;;;;;;25.14;39.30;100255.61;1699850;82;21050;-65
2021/09/13 09:41:14;;;;;;;9.60;7.47;;;;;;;25.19;39.14;100262.49;1735563;80;21055;-65
2021/09/13 09:43:59;;;;;;;14.50;8.18;;;;;;;25.26;39.25;100256.55;1683107;83;21518;-63
2021/09/13 09:46:42;;;;;;;10.55;7.28;;;;;;;25.35;38.50;100257.06;1735329;80;21113;-65
2021/09/13 09:49:16;;;;;;;8.68;7.03;;;;;;;25.40;38.13;100250.48;1702057;82;21394;-63
2021/09/13 09:51:49;;;;;;;10.63;7.62;;;;;;;25.44;38.31;100253.58;1723956;81;21455;-64
2021/09/13 09:54:21;;;;;;;10.63;7.17;;;;;;;25.47;37.96;100247.72;1736669;80;21099;-67
2021/09/13 09:57:00;;;;;;;13.10;8.43;;;;;;;25.52;38.17;100250.56;1699754;82;21141;-64
2021/09/13 09:59:40;;;;;;;13.20;7.75;;;;;;;25.57;37.67;100246.16;1734502;80;21086;-64
2021/09/13 10:02:18;;;;;;;12.65;8.33;;;;;;;25.60;37.26;100248.91;1701069;82;21038;-62
2021/09/13 10:04:50;;;;;;;12.35;7.37;;;;;;;25.59;37.07;100237.86;1720381;80;21388;-64
2021/09/13 10:07:16;;;;;;;12.20;7.97;;;;;;;25.57;37.55;100247.51;1723958;81;21713;-64
2021/09/13 10:09:45;;;;;;;11.65;8.03;;;;;;;25.57;36.83;100245.31;1721594;81;21624;-65
2021/09/13 10:12:12;;;;;;;13.22;7.67;;;;;;;25.62;37.11;100246.84;1733309;80;21051;-64
2021/09/13 10:14:38;;;;;;;9.65;7.05;;;;;;;25.66;37.27;100236.43;1730766;80;21079;-66
2021/09/13 10:17:07;;;;;;;10.98;6.92;;;;;;;25.71;37.55;100236.04;1740061;80;21552;-64
2021/09/13 10:19:36;;;;;;;11.08;8.15;;;;;;;25.76;36.56;100234.83;1730618;80;21050;-64
2021/09/13 10:22:02;;;;;;;11.28;7.67;;;;;;;25.84;36.16;100239.60;1678671;82;21246;-63
2021/09/13 10:24:32;;;;;;;9.50;7.47;;;;;;;25.89;36.09;100228.96;1703455;82;21102;-64
2021/09/13 10:27:06;;;;;;;12.37;7.00;;;;;;;25.92;35.25;100223.13;1736054;80;21526;-65
2021/09/13 10:29:34;;;;;;;10.90;7.78;;;;;;;25.90;35.72;100227.92;1732998;80;21094;-64
2021/09/13 10:32:11;;;;;;;9.75;6.97;;;;;;;25.91;35.60;100220.96;1732588;80;21063;-64
2021/09/13 10:34:49;;;;;;;9.70;7.22;;;;;;;25.96;35.53;100218.97;1732739;80;21128;-64
2021/09/13 10:37:19;;;;;;;10.93;7.70;;;;;;;26.04;35.58;100228.09;1699967;82;21669;-64
2021/09/13 10:40:17;;;;;;;11.55;7.70;;;;;;;26.05;35.41;100226.20;1702072;82;21081;-65
2021/09/13 10:42:49;;;;;;;12.82;8.15;;;;;;;26.06;34.87;100225.98;1677117;83;21058;-64
2021/09/13 10:45:28;;;;;;;11.08;7.70;;;;;;;26.09;35.29;100207.16;1736494;80;21051;-64
2021/09/13 10:48:00;;;;;;;11.18;7.28;;;;;;;26.14;34.81;100206.78;1735340;80;21493;-66
2021/09/13 10:50:50;;;;;;;12.03;7.15;;;;;;;26.20;34.90;100213.11;1720242;80;21609;-65
2021/09/13 10:53:22;;;;;;;11.33;7.60;;;;;;;26.28;35.20;100207.93;1696974;82;21238;-67
2021/09/13 10:56:06;;;;;;;13.53;7.58;;;;;;;26.36;35.13;100199.51;1734433;80;21077;-66
2021/09/13 10:58:41;;;;;;;9.55;7.20;;;;;;;26.47;34.93;100205.42;1673092;82;21217;-57
2021/09/13 11:01:19;;;;;;;10.82;6.97;;;;;;;26.55;34.38;100200.23;1733184;80;25747;-57
2021/09/13 11:03:52;;;;;;;15.60;8.00;;;;;;;26.58;34.91;100199.77;1675969;82;21073;-58
2021/09/13 11:06:24;;;;;;;13.38;8.13;;;;;;;26.66;35.42;100195.41;1702438;82;21088;-58
2021/09/13 11:08:59;;;;;;;10.70;7.35;;;;;;;26.81;35.51;100197.62;1734318;80;21134;-57
2021/09/13 11:11:32;;;;;;;12.73;7.55;;;;;;;26.94;33.86;100194.41;1710174;82;21511;-58
2021/09/13 11:14:16;;;;;;;10.60;7.60;;;;;;;26.96;34.14;100184.19;1714327;82;21047;-56
2021/09/13 11:16:47;;;;;;;11.40;7.10;;;;;;;26.97;33.25;100185.30;1678887;82;21100;-60
2021/09/13 11:19:15;;;;;;;11.63;7.58;;;;;;;26.95;33.52;100185.23;1689429;82;21618;-57
2021/09/13 11:21:44;;;;;;;10.53;7.25;;;;;;;26.90;33.21;100175.16;1712599;82;21697;-60
2021/09/13 11:24:19;;;;;;;9.73;6.25;;;;;;;26.91;32.92;100181.38;1716045;82;21050;-56
2021/09/13 11:27:01;;;;;;;12.78;6.53;;;;;;;26.91;32.81;100182.73;1714855;82;21532;-57
2021/09/13 11:29:37;;;;;;;9.78;6.67;;;;;;;26.92;32.90;100181.67;1716905;82;21370;-56